M28 weather

Mid Continent Airport
Hayti, Missouri, United States

Public forecast

Using degrees Fahrenheit for public forecast. Weather courtesy of forecast.io.

Closest aviation weather report (METAR) to Mid Continent Airport

Closest report is Kennett Memorial Airport, 15.0 nm (27.7 km) W. Retrieved 2020/05/26 19:35 UTC (0 seconds ago):

KTKX 261935Z AUTO 13010G21KT 10SM SCT041 SCT049 29/20 A2989 RMK AO2

Closest aviation forecast (TAF) to Mid Continent Airport

Closest forecast is Jonesboro Municipal Airport, 50.5 nm (93.5 km) WSW. Retrieved 2020/05/26 18:34 UTC (57 minutes ago):

TAF KJBR 261732Z 2618/2718 16013G20KT P6SM VCSH SCT030 BKN080 FM261900 16011G17KT P6SM VCTS SCT040CB BKN060 FM270100 14008KT P6SM SCT025 BKN050 FM270500 16006KT P6SM VCSH BKN015 FM271600 17007KT P6SM VCSH SCT025 BKN050 AMD NOT SKED